Griffin, Georgia
Current Conditions -  °F | °C
As of 8:53 PM on Wednesday 26 Nov 2014 (Local Time) from KFFC Reporting Station
Broken Clouds Broken Clouds  
Wind Chill: 39°   Ceiling: 9500
Heat Index: 39°   Visibility: 10mi
Dew Point: 32°   Wind: 0mph
Humidity: 76%   Direction: NA
Pressure: 30.1"   Gusts: NA
Location:  33.25°N, 84.26°W
Report Text: KFFC 270153Z AUTO 00000KT 10SM BKN095 BKN120 04/00 A3010 RMK AO2 SLP197 T00390000
Loading
Personal Weather Stations






























Interactive Weather Map New forecast layout! Learn more

10-Day Weather Forecast

Advertisements
Track Severe Weather on mobile